sensor_id;sensor_type;location;lat;lon;timestamp;pressure;altitude;pressure_sealevel;temperature;humidity
70103;BME280;57470;50.034;15.256;2023-01-19T00:02:20;98073.63;;;2.07;98.17
70103;BME280;57470;50.034;15.256;2023-01-19T00:04:45;98076.69;;;1.99;98.04
70103;BME280;57470;50.034;15.256;2023-01-19T00:07:11;98084.63;;;2.13;98.30
70103;BME280;57470;50.034;15.256;2023-01-19T00:09:36;98090.97;;;2.09;98.19
70103;BME280;57470;50.034;15.256;2023-01-19T00:12:10;98099.44;;;2.14;97.79
70103;BME280;57470;50.034;15.256;2023-01-19T00:14:36;98091.31;;;2.03;98.46
70103;BME280;57470;50.034;15.256;2023-01-19T00:17:01;98097.13;;;2.08;98.61
70103;BME280;57470;50.034;15.256;2023-01-19T00:19:27;98101.31;;;1.97;98.39
70103;BME280;57470;50.034;15.256;2023-01-19T00:21:53;98108.22;;;1.98;98.56
70103;BME280;57470;50.034;15.256;2023-01-19T00:24:18;98119.25;;;2.04;98.35
70103;BME280;57470;50.034;15.256;2023-01-19T00:26:44;98113.22;;;2.02;98.63
70103;BME280;57470;50.034;15.256;2023-01-19T00:29:10;98114.16;;;2.01;98.56
70103;BME280;57470;50.034;15.256;2023-01-19T00:31:36;98114.56;;;2.09;98.17
70103;BME280;57470;50.034;15.256;2023-01-19T00:34:02;98115.75;;;2.04;97.92
70103;BME280;57470;50.034;15.256;2023-01-19T00:36:27;98122.09;;;2.15;97.73
70103;BME280;57470;50.034;15.256;2023-01-19T00:38:53;98126.41;;;2.16;97.69
70103;BME280;57470;50.034;15.256;2023-01-19T00:41:18;98135.44;;;2.26;97.08
70103;BME280;57470;50.034;15.256;2023-01-19T00:44:04;98137.31;;;2.24;96.83
70103;BME280;57470;50.034;15.256;2023-01-19T00:46:29;98141.22;;;2.17;97.17
70103;BME280;57470;50.034;15.256;2023-01-19T00:48:54;98141.47;;;2.29;96.96
70103;BME280;57470;50.034;15.256;2023-01-19T00:51:20;98147.56;;;2.13;97.13
70103;BME280;57470;50.034;15.256;2023-01-19T00:53:45;98147.03;;;2.07;97.51
70103;BME280;57470;50.034;15.256;2023-01-19T00:56:10;98161.44;;;2.00;97.87
70103;BME280;57470;50.034;15.256;2023-01-19T00:58:36;98161.94;;;2.06;97.90
70103;BME280;57470;50.034;15.256;2023-01-19T01:01:01;98163.75;;;2.06;97.63
70103;BME280;57470;50.034;15.256;2023-01-19T01:03:28;98168.19;;;2.19;97.58
70103;BME280;57470;50.034;15.256;2023-01-19T01:05:54;98165.31;;;2.08;97.44
70103;BME280;57470;50.034;15.256;2023-01-19T01:08:19;98175.22;;;2.19;97.55
70103;BME280;57470;50.034;15.256;2023-01-19T01:10:45;98175.91;;;2.22;97.42
70103;BME280;57470;50.034;15.256;2023-01-19T01:13:10;98169.22;;;2.33;97.05
70103;BME280;57470;50.034;15.256;2023-01-19T01:15:35;98162.50;;;2.43;96.34
70103;BME280;57470;50.034;15.256;2023-01-19T01:18:01;98173.34;;;2.37;96.45
70103;BME280;57470;50.034;15.256;2023-01-19T01:20:26;98176.31;;;2.31;96.55
70103;BME280;57470;50.034;15.256;2023-01-19T01:22:55;98186.56;;;2.19;97.08
70103;BME280;57470;50.034;15.256;2023-01-19T01:25:23;98181.91;;;2.24;96.40
70103;BME280;57470;50.034;15.256;2023-01-19T01:27:49;98183.28;;;2.32;96.42
70103;BME280;57470;50.034;15.256;2023-01-19T01:30:15;98179.47;;;2.21;96.33
70103;BME280;57470;50.034;15.256;2023-01-19T01:32:41;98186.56;;;2.19;96.58
70103;BME280;57470;50.034;15.256;2023-01-19T01:35:07;98196.13;;;2.20;96.61
70103;BME280;57470;50.034;15.256;2023-01-19T01:37:34;98193.16;;;2.11;96.54
70103;BME280;57470;50.034;15.256;2023-01-19T01:40:00;98197.38;;;1.98;97.28
70103;BME280;57470;50.034;15.256;2023-01-19T01:42:28;98187.50;;;2.03;97.60
70103;BME280;57470;50.034;15.256;2023-01-19T01:44:56;98196.94;;;1.89;97.75
70103;BME280;57470;50.034;15.256;2023-01-19T01:47:44;98198.91;;;2.02;97.28
70103;BME280;57470;50.034;15.256;2023-01-19T01:50:22;98204.38;;;1.97;96.94
70103;BME280;57470;50.034;15.256;2023-01-19T01:53:07;98199.31;;;1.94;97.89
70103;BME280;57470;50.034;15.256;2023-01-19T01:55:36;98207.78;;;1.99;97.24
70103;BME280;57470;50.034;15.256;2023-01-19T01:58:04;98214.91;;;2.13;96.65
70103;BME280;57470;50.034;15.256;2023-01-19T02:00:31;98213.88;;;2.15;96.55
70103;BME280;57470;50.034;15.256;2023-01-19T02:03:17;98220.31;;;2.10;96.52
70103;BME280;57470;50.034;15.256;2023-01-19T02:05:43;98219.72;;;2.20;96.02
70103;BME280;57470;50.034;15.256;2023-01-19T02:08:19;98222.59;;;2.16;95.72
70103;BME280;57470;50.034;15.256;2023-01-19T02:11:04;98211.38;;;2.14;96.30
70103;BME280;57470;50.034;15.256;2023-01-19T02:13:49;98219.81;;;2.03;96.84
70103;BME280;57470;50.034;15.256;2023-01-19T02:16:15;98221.06;;;1.96;97.29
70103;BME280;57470;50.034;15.256;2023-01-19T02:18:41;98223.06;;;1.91;97.51
70103;BME280;57470;50.034;15.256;2023-01-19T02:23:44;98226.13;;;1.83;97.99
70103;BME280;57470;50.034;15.256;2023-01-19T02:26:16;98228.66;;;1.85;98.12
70103;BME280;57470;50.034;15.256;2023-01-19T02:28:46;98231.88;;;1.90;97.82
70103;BME280;57470;50.034;15.256;2023-01-19T02:31:13;98224.97;;;1.72;98.15
70103;BME280;57470;50.034;15.256;2023-01-19T02:33:39;98223.56;;;1.82;98.82
70103;BME280;57470;50.034;15.256;2023-01-19T02:36:06;98214.72;;;1.84;98.99
70103;BME280;57470;50.034;15.256;2023-01-19T02:38:34;98214.56;;;1.87;98.38
70103;BME280;57470;50.034;15.256;2023-01-19T02:41:01;98214.28;;;1.92;98.29
70103;BME280;57470;50.034;15.256;2023-01-19T02:43:29;98217.69;;;1.94;98.42
70103;BME280;57470;50.034;15.256;2023-01-19T02:45:56;98213.28;;;1.79;98.55
70103;BME280;57470;50.034;15.256;2023-01-19T02:48:22;98217.16;;;1.55;99.15
70103;BME280;57470;50.034;15.256;2023-01-19T02:50:59;98215.38;;;1.55;99.35
70103;BME280;57470;50.034;15.256;2023-01-19T03:04:27;98245.47;;;1.48;99.35
70103;BME280;57470;50.034;15.256;2023-01-19T03:15:06;98257.50;;;1.52;99.11
70103;BME280;57470;50.034;15.256;2023-01-19T03:17:37;98255.44;;;1.24;99.18
70103;BME280;57470;50.034;15.256;2023-01-19T03:20:05;98260.94;;;1.18;99.25
70103;BME280;57470;50.034;15.256;2023-01-19T03:22:33;98266.19;;;1.18;99.21
70103;BME280;57470;50.034;15.256;2023-01-19T03:25:01;98262.88;;;1.32;99.28
70103;BME280;57470;50.034;15.256;2023-01-19T03:27:34;98266.81;;;1.40;98.79
70103;BME280;57470;50.034;15.256;2023-01-19T03:30:10;98270.03;;;1.45;98.19
70103;BME280;57470;50.034;15.256;2023-01-19T03:32:50;98264.59;;;1.33;98.04
70103;BME280;57470;50.034;15.256;2023-01-19T03:35:19;98264.94;;;1.08;98.24
70103;BME280;57470;50.034;15.256;2023-01-19T03:37:47;98266.97;;;1.03;98.71
70103;BME280;57470;50.034;15.256;2023-01-19T03:40:15;98273.38;;;1.32;98.52
70103;BME280;57470;50.034;15.256;2023-01-19T03:42:41;98282.81;;;1.00;98.46
70103;BME280;57470;50.034;15.256;2023-01-19T03:45:10;98285.16;;;1.06;98.73
70103;BME280;57470;50.034;15.256;2023-01-19T03:47:36;98290.00;;;1.13;98.74
70103;BME280;57470;50.034;15.256;2023-01-19T03:50:06;98285.81;;;1.09;98.46
70103;BME280;57470;50.034;15.256;2023-01-19T03:52:33;98291.38;;;1.03;98.17
70103;BME280;57470;50.034;15.256;2023-01-19T03:55:00;98289.47;;;1.07;98.20
70103;BME280;57470;50.034;15.256;2023-01-19T03:57:26;98288.63;;;1.06;97.85
70103;BME280;57470;50.034;15.256;2023-01-19T03:59:51;98300.69;;;1.09;97.80
70103;BME280;57470;50.034;15.256;2023-01-19T04:02:17;98294.91;;;1.02;97.48
70103;BME280;57470;50.034;15.256;2023-01-19T04:04:43;98294.00;;;1.03;97.02
70103;BME280;57470;50.034;15.256;2023-01-19T04:07:09;98289.28;;;0.93;97.43
70103;BME280;57470;50.034;15.256;2023-01-19T04:09:34;98294.38;;;0.96;97.12
70103;BME280;57470;50.034;15.256;2023-01-19T04:12:00;98287.50;;;0.93;97.26
70103;BME280;57470;50.034;15.256;2023-01-19T04:14:26;98293.31;;;0.81;97.43
70103;BME280;57470;50.034;15.256;2023-01-19T04:16:52;98292.34;;;0.84;97.62
70103;BME280;57470;50.034;15.256;2023-01-19T04:19:17;98306.50;;;0.80;97.46
70103;BME280;57470;50.034;15.256;2023-01-19T04:21:42;98299.28;;;0.66;97.75
70103;BME280;57470;50.034;15.256;2023-01-19T04:24:09;98296.75;;;0.64;97.56
70103;BME280;57470;50.034;15.256;2023-01-19T04:26:34;98293.38;;;0.62;97.72
70103;BME280;57470;50.034;15.256;2023-01-19T04:29:00;98301.84;;;0.67;97.80
70103;BME280;57470;50.034;15.256;2023-01-19T04:31:25;98299.66;;;0.58;97.67
70103;BME280;57470;50.034;15.256;2023-01-19T04:33:51;98301.00;;;0.67;97.29
70103;BME280;57470;50.034;15.256;2023-01-19T04:36:16;98312.44;;;0.64;97.55
70103;BME280;57470;50.034;15.256;2023-01-19T04:38:42;98310.09;;;0.77;97.14
70103;BME280;57470;50.034;15.256;2023-01-19T04:41:07;98307.94;;;0.68;96.97
70103;BME280;57470;50.034;15.256;2023-01-19T04:43:32;98320.78;;;0.72;97.15
70103;BME280;57470;50.034;15.256;2023-01-19T04:45:58;98321.94;;;0.67;97.06
70103;BME280;57470;50.034;15.256;2023-01-19T04:48:23;98331.97;;;0.76;96.86
70103;BME280;57470;50.034;15.256;2023-01-19T04:50:50;98326.38;;;0.65;96.88
70103;BME280;57470;50.034;15.256;2023-01-19T04:53:16;98332.94;;;0.73;96.45
70103;BME280;57470;50.034;15.256;2023-01-19T04:55:42;98337.69;;;0.65;96.70
70103;BME280;57470;50.034;15.256;2023-01-19T04:58:08;98334.50;;;0.78;96.37
70103;BME280;57470;50.034;15.256;2023-01-19T05:00:33;98344.00;;;0.80;96.07
70103;BME280;57470;50.034;15.256;2023-01-19T05:02:59;98351.75;;;0.82;96.00
70103;BME280;57470;50.034;15.256;2023-01-19T05:05:25;98356.91;;;0.83;95.75
70103;BME280;57470;50.034;15.256;2023-01-19T05:07:51;98362.44;;;0.77;96.09
70103;BME280;57470;50.034;15.256;2023-01-19T05:10:16;98357.06;;;0.80;95.91
70103;BME280;57470;50.034;15.256;2023-01-19T05:12:42;98367.38;;;0.83;95.97
70103;BME280;57470;50.034;15.256;2023-01-19T05:15:08;98372.63;;;0.83;95.97
70103;BME280;57470;50.034;15.256;2023-01-19T05:17:34;98376.03;;;0.85;95.54
70103;BME280;57470;50.034;15.256;2023-01-19T05:19:59;98383.94;;;0.84;95.19
70103;BME280;57470;50.034;15.256;2023-01-19T05:22:25;98378.00;;;0.80;95.31
70103;BME280;57470;50.034;15.256;2023-01-19T05:24:50;98380.75;;;0.77;95.41
70103;BME280;57470;50.034;15.256;2023-01-19T05:27:17;98388.97;;;0.69;95.44
70103;BME280;57470;50.034;15.256;2023-01-19T05:29:42;98386.44;;;0.68;95.90
70103;BME280;57470;50.034;15.256;2023-01-19T05:32:07;98396.16;;;0.64;95.30
70103;BME280;57470;50.034;15.256;2023-01-19T05:34:33;98398.16;;;0.59;96.07
70103;BME280;57470;50.034;15.256;2023-01-19T05:36:58;98399.97;;;0.38;96.78
70103;BME280;57470;50.034;15.256;2023-01-19T05:39:24;98409.72;;;0.35;97.73
70103;BME280;57470;50.034;15.256;2023-01-19T05:41:51;98410.47;;;-0.22;98.86
70103;BME280;57470;50.034;15.256;2023-01-19T05:44:16;98416.16;;;-0.33;100.00
70103;BME280;57470;50.034;15.256;2023-01-19T05:46:42;98423.41;;;0.01;100.00
70103;BME280;57470;50.034;15.256;2023-01-19T05:49:07;98427.50;;;0.27;99.89
70103;BME280;57470;50.034;15.256;2023-01-19T05:51:33;98427.94;;;0.36;98.34
70103;BME280;57470;50.034;15.256;2023-01-19T05:54:03;98427.69;;;0.43;97.78
70103;BME280;57470;50.034;15.256;2023-01-19T05:56:28;98427.09;;;0.36;98.21
70103;BME280;57470;50.034;15.256;2023-01-19T05:58:54;98435.31;;;0.47;98.27
70103;BME280;57470;50.034;15.256;2023-01-19T06:01:19;98429.41;;;0.44;98.20
70103;BME280;57470;50.034;15.256;2023-01-19T06:03:45;98424.00;;;0.47;97.96
70103;BME280;57470;50.034;15.256;2023-01-19T06:06:11;98427.28;;;0.52;98.30
70103;BME280;57470;50.034;15.256;2023-01-19T06:08:39;98417.69;;;0.52;98.05
70103;BME280;57470;50.034;15.256;2023-01-19T06:11:05;98425.53;;;0.52;97.72
70103;BME280;57470;50.034;15.256;2023-01-19T06:13:31;98425.72;;;0.48;97.58
70103;BME280;57470;50.034;15.256;2023-01-19T06:16:01;98425.78;;;0.46;98.35
70103;BME280;57470;50.034;15.256;2023-01-19T06:18:28;98421.63;;;0.42;97.58
70103;BME280;57470;50.034;15.256;2023-01-19T06:20:53;98431.41;;;0.37;97.41
70103;BME280;57470;50.034;15.256;2023-01-19T06:23:28;98427.94;;;0.36;97.48
70103;BME280;57470;50.034;15.256;2023-01-19T06:25:54;98430.06;;;0.28;96.44
70103;BME280;57470;50.034;15.256;2023-01-19T06:28:19;98430.78;;;0.32;96.96
70103;BME280;57470;50.034;15.256;2023-01-19T06:30:48;98427.66;;;0.24;96.44
70103;BME280;57470;50.034;15.256;2023-01-19T06:33:17;98429.75;;;0.16;96.10
70103;BME280;57470;50.034;15.256;2023-01-19T06:35:44;98432.94;;;0.22;96.33
70103;BME280;57470;50.034;15.256;2023-01-19T06:38:10;98434.31;;;0.11;96.06
70103;BME280;57470;50.034;15.256;2023-01-19T06:40:38;98427.66;;;0.04;96.12
70103;BME280;57470;50.034;15.256;2023-01-19T06:43:03;98435.50;;;0.04;96.78
70103;BME280;57470;50.034;15.256;2023-01-19T06:45:28;98427.94;;;-0.03;96.41
70103;BME280;57470;50.034;15.256;2023-01-19T06:47:54;98424.75;;;-0.09;95.98
70103;BME280;57470;50.034;15.256;2023-01-19T06:50:19;98425.66;;;-0.10;95.81
70103;BME280;57470;50.034;15.256;2023-01-19T06:52:45;98423.28;;;-0.16;95.99
70103;BME280;57470;50.034;15.256;2023-01-19T06:55:13;98423.16;;;-0.13;96.34
70103;BME280;57470;50.034;15.256;2023-01-19T06:57:40;98417.19;;;-0.17;96.40
70103;BME280;57470;50.034;15.256;2023-01-19T07:00:06;98421.91;;;-0.25;96.03
70103;BME280;57470;50.034;15.256;2023-01-19T07:02:36;98418.00;;;-0.15;96.00
70103;BME280;57470;50.034;15.256;2023-01-19T07:05:05;98420.34;;;-0.09;96.00
70103;BME280;57470;50.034;15.256;2023-01-19T07:07:31;98417.94;;;-0.13;96.47
70103;BME280;57470;50.034;15.256;2023-01-19T07:09:56;98424.25;;;0.02;97.20
70103;BME280;57470;50.034;15.256;2023-01-19T07:12:22;98425.72;;;-0.12;97.64
70103;BME280;57470;50.034;15.256;2023-01-19T07:14:47;98433.59;;;-0.13;97.66
70103;BME280;57470;50.034;15.256;2023-01-19T07:17:13;98434.63;;;-0.17;97.13
70103;BME280;57470;50.034;15.256;2023-01-19T07:19:38;98447.41;;;-0.10;96.86
70103;BME280;57470;50.034;15.256;2023-01-19T07:22:05;98446.56;;;-0.10;96.55
70103;BME280;57470;50.034;15.256;2023-01-19T07:24:31;98448.25;;;-0.09;96.77
70103;BME280;57470;50.034;15.256;2023-01-19T07:26:58;98452.44;;;-0.05;96.63
70103;BME280;57470;50.034;15.256;2023-01-19T07:29:24;98457.53;;;-0.02;96.37
70103;BME280;57470;50.034;15.256;2023-01-19T07:31:49;98454.72;;;0.03;96.86
70103;BME280;57470;50.034;15.256;2023-01-19T07:34:14;98457.19;;;0.06;96.86
70103;BME280;57470;50.034;15.256;2023-01-19T07:36:40;98465.50;;;0.15;96.30
70103;BME280;57470;50.034;15.256;2023-01-19T07:39:05;98474.00;;;0.41;95.51
70103;BME280;57470;50.034;15.256;2023-01-19T07:41:30;98475.34;;;0.49;95.82
70103;BME280;57470;50.034;15.256;2023-01-19T07:43:56;98474.41;;;0.70;95.50
70103;BME280;57470;50.034;15.256;2023-01-19T07:46:21;98476.41;;;0.84;94.88
70103;BME280;57470;50.034;15.256;2023-01-19T07:48:47;98480.34;;;0.93;94.44
70103;BME280;57470;50.034;15.256;2023-01-19T07:51:12;98481.00;;;1.17;94.35
70103;BME280;57470;50.034;15.256;2023-01-19T07:53:43;98483.53;;;1.18;93.90
70103;BME280;57470;50.034;15.256;2023-01-19T07:56:09;98485.91;;;1.24;93.43
70103;BME280;57470;50.034;15.256;2023-01-19T07:58:34;98499.06;;;1.23;93.24
70103;BME280;57470;50.034;15.256;2023-01-19T08:01:04;98494.72;;;1.40;92.91
70103;BME280;57470;50.034;15.256;2023-01-19T08:03:30;98501.50;;;1.44;92.33
70103;BME280;57470;50.034;15.256;2023-01-19T08:05:55;98499.16;;;1.57;91.53
70103;BME280;57470;50.034;15.256;2023-01-19T08:08:22;98498.94;;;1.62;90.56
70103;BME280;57470;50.034;15.256;2023-01-19T08:10:49;98497.63;;;1.70;90.33
70103;BME280;57470;50.034;15.256;2023-01-19T08:13:14;98501.81;;;1.74;89.97
70103;BME280;57470;50.034;15.256;2023-01-19T08:15:40;98502.75;;;1.73;90.62
70103;BME280;57470;50.034;15.256;2023-01-19T08:18:05;98499.63;;;1.65;90.14
70103;BME280;57470;50.034;15.256;2023-01-19T08:20:33;98497.44;;;1.75;89.81
70103;BME280;57470;50.034;15.256;2023-01-19T08:22:58;98513.06;;;2.30;88.63
70103;BME280;57470;50.034;15.256;2023-01-19T08:25:36;98506.22;;;2.77;86.23
70103;BME280;57470;50.034;15.256;2023-01-19T08:28:03;98505.31;;;2.44;87.42
70103;BME280;57470;50.034;15.256;2023-01-19T08:30:29;98502.78;;;2.25;88.37
70103;BME280;57470;50.034;15.256;2023-01-19T08:32:55;98505.31;;;1.92;89.52
70103;BME280;57470;50.034;15.256;2023-01-19T08:35:31;98509.63;;;1.93;90.15
70103;BME280;57470;50.034;15.256;2023-01-19T08:37:57;98509.16;;;1.85;90.28
70103;BME280;57470;50.034;15.256;2023-01-19T08:40:29;98516.19;;;2.02;90.23
70103;BME280;57470;50.034;15.256;2023-01-19T08:43:06;98509.63;;;2.62;87.71
70103;BME280;57470;50.034;15.256;2023-01-19T08:45:36;98500.47;;;3.66;83.24
70103;BME280;57470;50.034;15.256;2023-01-19T08:48:03;98506.69;;;4.25;80.51
70103;BME280;57470;50.034;15.256;2023-01-19T08:50:31;98506.69;;;4.55;78.04
70103;BME280;57470;50.034;15.256;2023-01-19T08:52:58;98516.78;;;5.19;74.89
70103;BME280;57470;50.034;15.256;2023-01-19T08:55:24;98514.63;;;5.26;75.26
70103;BME280;57470;50.034;15.256;2023-01-19T08:57:54;98507.47;;;5.14;74.27
70103;BME280;57470;50.034;15.256;2023-01-19T09:00:21;98512.53;;;4.60;75.26
70103;BME280;57470;50.034;15.256;2023-01-19T09:02:47;98517.19;;;4.11;77.29
70103;BME280;57470;50.034;15.256;2023-01-19T09:05:12;98523.78;;;4.18;77.65
70103;BME280;57470;50.034;15.256;2023-01-19T09:07:37;98521.66;;;4.25;78.24
70103;BME280;57470;50.034;15.256;2023-01-19T09:10:04;98523.03;;;4.16;79.19
70103;BME280;57470;50.034;15.256;2023-01-19T09:12:29;98512.75;;;3.82;78.72
70103;BME280;57470;50.034;15.256;2023-01-19T09:14:55;98518.50;;;3.41;77.96
70103;BME280;57470;50.034;15.256;2023-01-19T09:17:20;98521.91;;;3.43;78.46
70103;BME280;57470;50.034;15.256;2023-01-19T09:19:45;98532.19;;;2.99;78.11
70103;BME280;57470;50.034;15.256;2023-01-19T09:22:11;98530.00;;;3.07;78.54
70103;BME280;57470;50.034;15.256;2023-01-19T09:24:36;98541.16;;;2.95;80.26
70103;BME280;57470;50.034;15.256;2023-01-19T09:27:01;98544.50;;;2.81;79.46
70103;BME280;57470;50.034;15.256;2023-01-19T09:29:27;98536.41;;;2.69;79.06
70103;BME280;57470;50.034;15.256;2023-01-19T09:31:52;98547.22;;;2.45;79.30
70103;BME280;57470;50.034;15.256;2023-01-19T09:34:18;98537.59;;;2.11;80.27
70103;BME280;57470;50.034;15.256;2023-01-19T09:36:45;98535.75;;;2.13;80.24
70103;BME280;57470;50.034;15.256;2023-01-19T09:39:10;98534.19;;;2.09;80.04
70103;BME280;57470;50.034;15.256;2023-01-19T09:41:37;98521.53;;;2.17;80.63
70103;BME280;57470;50.034;15.256;2023-01-19T09:44:03;98522.63;;;2.31;80.12
70103;BME280;57470;50.034;15.256;2023-01-19T09:46:36;98514.88;;;1.93;80.89
70103;BME280;57470;50.034;15.256;2023-01-19T09:49:26;98518.59;;;2.06;80.55
70103;BME280;57470;50.034;15.256;2023-01-19T09:51:54;98526.84;;;1.99;80.49
70103;BME280;57470;50.034;15.256;2023-01-19T09:54:40;98532.47;;;2.08;80.10
70103;BME280;57470;50.034;15.256;2023-01-19T09:57:12;98542.13;;;2.08;80.52
70103;BME280;57470;50.034;15.256;2023-01-19T09:59:39;98533.53;;;1.87;80.34
70103;BME280;57470;50.034;15.256;2023-01-19T10:04:59;98549.31;;;2.21;79.92
70103;BME280;57470;50.034;15.256;2023-01-19T10:10:15;98547.38;;;2.08;79.73
70103;BME280;57470;50.034;15.256;2023-01-19T10:21:08;98551.38;;;2.84;80.30
70103;BME280;57470;50.034;15.256;2023-01-19T10:23:43;98549.75;;;2.81;78.57
70103;BME280;57470;50.034;15.256;2023-01-19T10:26:37;98555.16;;;2.78;77.88
70103;BME280;57470;50.034;15.256;2023-01-19T10:29:32;98556.34;;;3.06;77.46
70103;BME280;57470;50.034;15.256;2023-01-19T10:34:37;98560.66;;;3.07;76.57
70103;BME280;57470;50.034;15.256;2023-01-19T10:37:31;98554.81;;;3.01;76.41
70103;BME280;57470;50.034;15.256;2023-01-19T10:40:00;98560.19;;;3.16;76.05
70103;BME280;57470;50.034;15.256;2023-01-19T10:42:28;98559.38;;;2.98;75.59
70103;BME280;57470;50.034;15.256;2023-01-19T10:44:54;98572.06;;;3.23;76.03
70103;BME280;57470;50.034;15.256;2023-01-19T10:47:23;98566.38;;;3.15;75.49
70103;BME280;57470;50.034;15.256;2023-01-19T10:49:51;98557.03;;;3.09;76.13
70103;BME280;57470;50.034;15.256;2023-01-19T10:52:25;98561.38;;;3.26;76.06
70103;BME280;57470;50.034;15.256;2023-01-19T10:54:53;98568.91;;;3.16;75.66
70103;BME280;57470;50.034;15.256;2023-01-19T10:57:29;98563.59;;;3.18;74.86
70103;BME280;57470;50.034;15.256;2023-01-19T10:59:55;98555.28;;;3.25;73.93
70103;BME280;57470;50.034;15.256;2023-01-19T11:02:28;98547.19;;;3.61;74.45
70103;BME280;57470;50.034;15.256;2023-01-19T11:12:41;98546.19;;;3.48;73.28
70103;BME280;57470;50.034;15.256;2023-01-19T11:15:23;98535.06;;;3.74;72.98
70103;BME280;57470;50.034;15.256;2023-01-19T11:17:49;98535.81;;;3.45;71.36
70103;BME280;57470;50.034;15.256;2023-01-19T11:20:28;98533.25;;;3.59;73.03
70103;BME280;57470;50.034;15.256;2023-01-19T11:25:38;98532.81;;;3.20;71.72
70103;BME280;57470;50.034;15.256;2023-01-19T11:28:04;98535.81;;;3.45;71.43
70103;BME280;57470;50.034;15.256;2023-01-19T11:30:29;98527.22;;;3.26;71.49
70103;BME280;57470;50.034;15.256;2023-01-19T11:32:55;98530.06;;;3.38;71.98
70103;BME280;57470;50.034;15.256;2023-01-19T11:35:31;98516.28;;;3.33;72.16
70103;BME280;57470;50.034;15.256;2023-01-19T11:38:19;98524.72;;;3.56;73.08
70103;BME280;57470;50.034;15.256;2023-01-19T11:40:54;98519.69;;;3.51;73.27
70103;BME280;57470;50.034;15.256;2023-01-19T11:43:22;98523.84;;;3.71;71.94
70103;BME280;57470;50.034;15.256;2023-01-19T11:45:47;98516.81;;;3.40;72.94
70103;BME280;57470;50.034;15.256;2023-01-19T11:48:22;98528.66;;;3.31;73.09
70103;BME280;57470;50.034;15.256;2023-01-19T11:50:48;98519.53;;;3.38;74.57
70103;BME280;57470;50.034;15.256;2023-01-19T11:53:25;98518.56;;;3.08;73.34
70103;BME280;57470;50.034;15.256;2023-01-19T11:56:10;98518.47;;;3.10;73.13
70103;BME280;57470;50.034;15.256;2023-01-19T11:58:39;98505.09;;;3.14;73.20
70103;BME280;57470;50.034;15.256;2023-01-19T12:01:24;98502.81;;;2.75;73.42
70103;BME280;57470;50.034;15.256;2023-01-19T12:04:13;98498.31;;;2.94;74.77
70103;BME280;57470;50.034;15.256;2023-01-19T12:06:41;98499.75;;;3.16;74.13
70103;BME280;57470;50.034;15.256;2023-01-19T12:11:36;98498.59;;;2.88;75.60
70103;BME280;57470;50.034;15.256;2023-01-19T12:14:03;98494.38;;;2.86;75.26
70103;BME280;57470;50.034;15.256;2023-01-19T12:16:29;98499.38;;;2.57;76.37
70103;BME280;57470;50.034;15.256;2023-01-19T12:19:03;98501.44;;;2.68;75.73
70103;BME280;57470;50.034;15.256;2023-01-19T12:21:30;98500.91;;;2.61;75.64
70103;BME280;57470;50.034;15.256;2023-01-19T12:24:04;98498.91;;;2.67;75.11
70103;BME280;57470;50.034;15.256;2023-01-19T12:26:43;98492.91;;;2.47;75.53
70103;BME280;57470;50.034;15.256;2023-01-19T12:29:17;98498.13;;;2.64;76.14
70103;BME280;57470;50.034;15.256;2023-01-19T12:34:45;98499.22;;;2.43;75.97
70103;BME280;57470;50.034;15.256;2023-01-19T12:39:51;98505.97;;;2.32;76.05
70103;BME280;57470;50.034;15.256;2023-01-19T12:42:17;98504.41;;;2.28;76.41
70103;BME280;57470;50.034;15.256;2023-01-19T12:44:46;98500.22;;;2.58;75.91
70103;BME280;57470;50.034;15.256;2023-01-19T12:52:21;98496.19;;;2.51;76.58
70103;BME280;57470;50.034;15.256;2023-01-19T12:57:30;98500.22;;;2.58;75.96
70103;BME280;57470;50.034;15.256;2023-01-19T12:59:59;98509.56;;;2.63;75.64
70103;BME280;57470;50.034;15.256;2023-01-19T13:05:10;98525.72;;;2.89;76.71
70103;BME280;57470;50.034;15.256;2023-01-19T13:15:51;98525.69;;;2.73;74.52
70103;BME280;57470;50.034;15.256;2023-01-19T13:18:28;98527.16;;;2.61;75.42
70103;BME280;57470;50.034;15.256;2023-01-19T13:21:06;98526.75;;;2.69;75.66
70103;BME280;57470;50.034;15.256;2023-01-19T13:23:53;98521.41;;;2.71;76.20
70103;BME280;57470;50.034;15.256;2023-01-19T13:26:21;98524.69;;;2.76;75.59
70103;BME280;57470;50.034;15.256;2023-01-19T13:28:51;98521.53;;;2.52;75.83
70103;BME280;57470;50.034;15.256;2023-01-19T13:31:17;98532.44;;;2.94;75.78
70103;BME280;57470;50.034;15.256;2023-01-19T13:38:48;98529.31;;;2.53;77.61
70103;BME280;57470;50.034;15.256;2023-01-19T13:41:18;98532.47;;;2.77;77.28
70103;BME280;57470;50.034;15.256;2023-01-19T13:43:46;98516.44;;;2.66;76.29
70103;BME280;57470;50.034;15.256;2023-01-19T13:46:14;98525.19;;;2.82;75.73
70103;BME280;57470;50.034;15.256;2023-01-19T13:48:55;98519.09;;;2.82;75.84
70103;BME280;57470;50.034;15.256;2023-01-19T13:51:21;98523.19;;;2.70;76.84
70103;BME280;57470;50.034;15.256;2023-01-19T13:53:58;98529.22;;;2.72;76.10
70103;BME280;57470;50.034;15.256;2023-01-19T13:56:26;98531.16;;;2.86;76.09
70103;BME280;57470;50.034;15.256;2023-01-19T13:59:11;98530.13;;;2.88;75.91
70103;BME280;57470;50.034;15.256;2023-01-19T14:01:40;98530.53;;;2.81;78.46
70103;BME280;57470;50.034;15.256;2023-01-19T14:04:35;98529.81;;;2.94;76.06
70103;BME280;57470;50.034;15.256;2023-01-19T14:07:05;98530.28;;;2.85;75.59
70103;BME280;57470;50.034;15.256;2023-01-19T14:09:36;98526.00;;;3.00;76.33
70103;BME280;57470;50.034;15.256;2023-01-19T14:12:21;98526.22;;;2.95;77.50
70103;BME280;57470;50.034;15.256;2023-01-19T14:14:46;98526.34;;;2.94;75.50
70103;BME280;57470;50.034;15.256;2023-01-19T14:17:27;98526.22;;;2.95;76.40
70103;BME280;57470;50.034;15.256;2023-01-19T14:19:54;98519.63;;;2.88;76.06
70103;BME280;57470;50.034;15.256;2023-01-19T14:22:20;98525.97;;;2.84;75.88
70103;BME280;57470;50.034;15.256;2023-01-19T14:25:24;98517.06;;;2.87;76.20
70103;BME280;57470;50.034;15.256;2023-01-19T14:27:50;98532.28;;;2.80;75.69
70103;BME280;57470;50.034;15.256;2023-01-19T14:30:21;98532.06;;;2.85;76.49